<?xml version="1.0" encoding="UTF-8" standalone="no" ?>
<gpx xmlns="http://www.topografix.com/GPX/1/1" xmlns:xsi="http://www.w3.org/2001/XMLSchema-instance" xsi:schemaLocation="http://www.topografix.com/GPX/1/1 http://www.topografix.com/GPX/1/1/gpx.xsd" version="1.1" creator="VisuGPX - https://www.visugpx.com">
  <metadata>
    <name>Parcours domicile travail</name>
    <desc><![CDATA[sortie du 08/08/2013]]></desc>
  </metadata>
  <wpt lat="48.72356" lon="2.09887">
    <ele>160</ele>
    <name><![CDATA[Start]]></name>
    <desc><![CDATA[2013-08-08 05:24:04]]></desc>
  </wpt>
  <wpt lat="48.76261" lon="2.08354">
    <ele>159.1</ele>
    <name><![CDATA[Lap 1]]></name>
    <desc><![CDATA[8.34km, 28:48, 17.4kph]]></desc>
  </wpt>
  <trk>
    <name><![CDATA[2013-08-08-05-24-04]]></name>
    <desc><![CDATA[28:48 - 8.3km]]></desc>
    <trkseg>
      <trkpt lat="48.72356" lon="2.09887">
        <ele>166.673</ele>
        <time>2013-08-08T05:24:04Z</time>
      </trkpt>
      <trkpt lat="48.72356" lon="2.09887">
        <ele>166.673</ele>
        <time>2013-08-08T05:24:05Z</time>
      </trkpt>
      <trkpt lat="48.72356" lon="2.09887">
        <ele>166.972</ele>
        <time>2013-08-08T05:24:09Z</time>
      </trkpt>
      <trkpt lat="48.72355" lon="2.09886">
        <ele>166.665</ele>
        <time>2013-08-08T05:24:18Z</time>
      </trkpt>
      <trkpt lat="48.72357" lon="2.09886">
        <ele>166.826</ele>
        <time>2013-08-08T05:24:22Z</time>
      </trkpt>
      <trkpt lat="48.72356" lon="2.09887">
        <ele>166.842</ele>
        <time>2013-08-08T05:24:26Z</time>
      </trkpt>
      <trkpt lat="48.72355" lon="2.09888">
        <ele>166.844</ele>
        <time>2013-08-08T05:24:30Z</time>
      </trkpt>
      <trkpt lat="48.72356" lon="2.09887">
        <ele>166.87</ele>
        <time>2013-08-08T05:24:33Z</time>
      </trkpt>
      <trkpt lat="48.72357" lon="2.09889">
        <ele>166.686</ele>
        <time>2013-08-08T05:24:40Z</time>
      </trkpt>
      <trkpt lat="48.72358" lon="2.09886">
        <ele>166.606</ele>
        <time>2013-08-08T05:25:21Z</time>
      </trkpt>
      <trkpt lat="48.72358" lon="2.09881">
        <ele>166.345</ele>
        <time>2013-08-08T05:25:29Z</time>
      </trkpt>
      <trkpt lat="48.72364" lon="2.09856">
        <ele>166.272</ele>
        <time>2013-08-08T05:25:37Z</time>
      </trkpt>
      <trkpt lat="48.72371" lon="2.09816">
        <ele>166.234</ele>
        <time>2013-08-08T05:25:45Z</time>
      </trkpt>
      <trkpt lat="48.72379" lon="2.09764">
        <ele>165.864</ele>
        <time>2013-08-08T05:25:54Z</time>
      </trkpt>
      <trkpt lat="48.7238" lon="2.09758">
        <ele>165.861</ele>
        <time>2013-08-08T05:25:55Z</time>
      </trkpt>
      <trkpt lat="48.72382" lon="2.09747">
        <ele>165.678</ele>
        <time>2013-08-08T05:25:57Z</time>
      </trkpt>
      <trkpt lat="48.72389" lon="2.09704">
        <ele>165.306</ele>
        <time>2013-08-08T05:26:04Z</time>
      </trkpt>
      <trkpt lat="48.7239" lon="2.09641">
        <ele>164.889</ele>
        <time>2013-08-08T05:26:13Z</time>
      </trkpt>
      <trkpt lat="48.7239" lon="2.09577">
        <ele>164.63</ele>
        <time>2013-08-08T05:26:22Z</time>
      </trkpt>
      <trkpt lat="48.72389" lon="2.0957">
        <ele>164.559</ele>
        <time>2013-08-08T05:26:23Z</time>
      </trkpt>
      <trkpt lat="48.7239" lon="2.0951">
        <ele>164.593</ele>
        <time>2013-08-08T05:26:32Z</time>
      </trkpt>
      <trkpt lat="48.7239" lon="2.09465">
        <ele>164.464</ele>
        <time>2013-08-08T05:26:39Z</time>
      </trkpt>
      <trkpt lat="48.7238" lon="2.09443">
        <ele>164.467</ele>
        <time>2013-08-08T05:26:43Z</time>
      </trkpt>
      <trkpt lat="48.72374" lon="2.09435">
        <ele>164.655</ele>
        <time>2013-08-08T05:26:45Z</time>
      </trkpt>
      <trkpt lat="48.72352" lon="2.09414">
        <ele>165.339</ele>
        <time>2013-08-08T05:26:51Z</time>
      </trkpt>
      <trkpt lat="48.72338" lon="2.094">
        <ele>165.881</ele>
        <time>2013-08-08T05:26:55Z</time>
      </trkpt>
      <trkpt lat="48.72304" lon="2.09367">
        <ele>166.953</ele>
        <time>2013-08-08T05:27:05Z</time>
      </trkpt>
      <trkpt lat="48.72291" lon="2.09353">
        <ele>167.228</ele>
        <time>2013-08-08T05:27:09Z</time>
      </trkpt>
      <trkpt lat="48.7229" lon="2.09331">
        <ele>167.444</ele>
        <time>2013-08-08T05:27:13Z</time>
      </trkpt>
      <trkpt lat="48.72316" lon="2.09276">
        <ele>167.638</ele>
        <time>2013-08-08T05:27:24Z</time>
      </trkpt>
      <trkpt lat="48.72334" lon="2.09241">
        <ele>167.72</ele>
        <time>2013-08-08T05:27:31Z</time>
      </trkpt>
      <trkpt lat="48.72354" lon="2.09198">
        <ele>167.226</ele>
        <time>2013-08-08T05:27:39Z</time>
      </trkpt>
      <trkpt lat="48.72368" lon="2.09185">
        <ele>167.047</ele>
        <time>2013-08-08T05:27:43Z</time>
      </trkpt>
      <trkpt lat="48.724" lon="2.09173">
        <ele>166.666</ele>
        <time>2013-08-08T05:27:51Z</time>
      </trkpt>
      <trkpt lat="48.72405" lon="2.09171">
        <ele>166.696</ele>
        <time>2013-08-08T05:27:52Z</time>
      </trkpt>
      <trkpt lat="48.7242" lon="2.09179">
        <ele>166.476</ele>
        <time>2013-08-08T05:27:56Z</time>
      </trkpt>
      <trkpt lat="48.72425" lon="2.09206">
        <ele>165.999</ele>
        <time>2013-08-08T05:28:00Z</time>
      </trkpt>
      <trkpt lat="48.72438" lon="2.09276">
        <ele>164.75</ele>
        <time>2013-08-08T05:28:09Z</time>
      </trkpt>
      <trkpt lat="48.72449" lon="2.0934">
        <ele>163.394</ele>
        <time>2013-08-08T05:28:16Z</time>
      </trkpt>
      <trkpt lat="48.72459" lon="2.09397">
        <ele>161.591</ele>
        <time>2013-08-08T05:28:21Z</time>
      </trkpt>
      <trkpt lat="48.72476" lon="2.09442">
        <ele>159.38</ele>
        <time>2013-08-08T05:28:25Z</time>
      </trkpt>
      <trkpt lat="48.72496" lon="2.09469">
        <ele>157.473</ele>
        <time>2013-08-08T05:28:28Z</time>
      </trkpt>
      <trkpt lat="48.72528" lon="2.09478">
        <ele>155.273</ele>
        <time>2013-08-08T05:28:31Z</time>
      </trkpt>
      <trkpt lat="48.72579" lon="2.09479">
        <ele>152.197</ele>
        <time>2013-08-08T05:28:35Z</time>
      </trkpt>
      <trkpt lat="48.7259" lon="2.09482">
        <ele>151.345</ele>
        <time>2013-08-08T05:28:36Z</time>
      </trkpt>
      <trkpt lat="48.72612" lon="2.09492">
        <ele>150.518</ele>
        <time>2013-08-08T05:28:38Z</time>
      </trkpt>
      <trkpt lat="48.7266" lon="2.09507">
        <ele>147.421</ele>
        <time>2013-08-08T05:28:42Z</time>
      </trkpt>
      <trkpt lat="48.72671" lon="2.09506">
        <ele>147.421</ele>
        <time>2013-08-08T05:28:43Z</time>
      </trkpt>
      <trkpt lat="48.72682" lon="2.09505">
        <ele>145.823</ele>
        <time>2013-08-08T05:28:44Z</time>
      </trkpt>
      <trkpt lat="48.72721" lon="2.09478">
        <ele>142.56</ele>
        <time>2013-08-08T05:28:48Z</time>
      </trkpt>
      <trkpt lat="48.72732" lon="2.09467">
        <ele>141.721</ele>
        <time>2013-08-08T05:28:49Z</time>
      </trkpt>
      <trkpt lat="48.72786" lon="2.09395">
        <ele>136.705</ele>
        <time>2013-08-08T05:28:55Z</time>
      </trkpt>
      <trkpt lat="48.72794" lon="2.09381">
        <ele>136.705</ele>
        <time>2013-08-08T05:28:56Z</time>
      </trkpt>
      <trkpt lat="48.72828" lon="2.09353">
        <ele>133.283</ele>
        <time>2013-08-08T05:28:59Z</time>
      </trkpt>
      <trkpt lat="48.72869" lon="2.09349">
        <ele>131.514</ele>
        <time>2013-08-08T05:29:02Z</time>
      </trkpt>
      <trkpt lat="48.72907" lon="2.09359">
        <ele>128.683</ele>
        <time>2013-08-08T05:29:05Z</time>
      </trkpt>
      <trkpt lat="48.72918" lon="2.0936">
        <ele>127.696</ele>
        <time>2013-08-08T05:29:06Z</time>
      </trkpt>
      <trkpt lat="48.72943" lon="2.09357">
        <ele>125.754</ele>
        <time>2013-08-08T05:29:08Z</time>
      </trkpt>
      <trkpt lat="48.72977" lon="2.09328">
        <ele>123.022</ele>
        <time>2013-08-08T05:29:11Z</time>
      </trkpt>
      <trkpt lat="48.73031" lon="2.09265">
        <ele>118.784</ele>
        <time>2013-08-08T05:29:16Z</time>
      </trkpt>
      <trkpt lat="48.73069" lon="2.09222">
        <ele>115.279</ele>
        <time>2013-08-08T05:29:20Z</time>
      </trkpt>
      <trkpt lat="48.73127" lon="2.09187">
        <ele>110.85</ele>
        <time>2013-08-08T05:29:25Z</time>
      </trkpt>
      <trkpt lat="48.73152" lon="2.09182">
        <ele>109.99</ele>
        <time>2013-08-08T05:29:27Z</time>
      </trkpt>
      <trkpt lat="48.73176" lon="2.09186">
        <ele>108.408</ele>
        <time>2013-08-08T05:29:29Z</time>
      </trkpt>
      <trkpt lat="48.73241" lon="2.09203">
        <ele>106.331</ele>
        <time>2013-08-08T05:29:35Z</time>
      </trkpt>
      <trkpt lat="48.73282" lon="2.09225">
        <ele>107.247</ele>
        <time>2013-08-08T05:29:40Z</time>
      </trkpt>
      <trkpt lat="48.73317" lon="2.09244">
        <ele>108.508</ele>
        <time>2013-08-08T05:29:44Z</time>
      </trkpt>
      <trkpt lat="48.73323" lon="2.09248">
        <ele>108.839</ele>
        <time>2013-08-08T05:29:45Z</time>
      </trkpt>
      <trkpt lat="48.73344" lon="2.09261">
        <ele>110.592</ele>
        <time>2013-08-08T05:29:49Z</time>
      </trkpt>
      <trkpt lat="48.73349" lon="2.09251">
        <ele>111.529</ele>
        <time>2013-08-08T05:29:51Z</time>
      </trkpt>
      <trkpt lat="48.7335" lon="2.09245">
        <ele>111.525</ele>
        <time>2013-08-08T05:29:52Z</time>
      </trkpt>
      <trkpt lat="48.73351" lon="2.09233">
        <ele>112.568</ele>
        <time>2013-08-08T05:29:55Z</time>
      </trkpt>
      <trkpt lat="48.73351" lon="2.09223">
        <ele>113.606</ele>
        <time>2013-08-08T05:29:58Z</time>
      </trkpt>
      <trkpt lat="48.73352" lon="2.09218">
        <ele>114.212</ele>
        <time>2013-08-08T05:30:00Z</time>
      </trkpt>
      <trkpt lat="48.73353" lon="2.09202">
        <ele>115.849</ele>
        <time>2013-08-08T05:30:06Z</time>
      </trkpt>
      <trkpt lat="48.73348" lon="2.09183">
        <ele>117.354</ele>
        <time>2013-08-08T05:30:14Z</time>
      </trkpt>
      <trkpt lat="48.73348" lon="2.09181">
        <ele>117.523</ele>
        <time>2013-08-08T05:30:15Z</time>
      </trkpt>
      <trkpt lat="48.73341" lon="2.09164">
        <ele>119.006</ele>
        <time>2013-08-08T05:30:23Z</time>
      </trkpt>
      <trkpt lat="48.73339" lon="2.0916">
        <ele>119.471</ele>
        <time>2013-08-08T05:30:25Z</time>
      </trkpt>
      <trkpt lat="48.73336" lon="2.09142">
        <ele>121.184</ele>
        <time>2013-08-08T05:30:34Z</time>
      </trkpt>
      <trkpt lat="48.7334" lon="2.09124">
        <ele>122.659</ele>
        <time>2013-08-08T05:30:42Z</time>
      </trkpt>
      <trkpt lat="48.73347" lon="2.09113">
        <ele>123.632</ele>
        <time>2013-08-08T05:30:49Z</time>
      </trkpt>
      <trkpt lat="48.73357" lon="2.09103">
        <ele>125.168</ele>
        <time>2013-08-08T05:30:57Z</time>
      </trkpt>
      <trkpt lat="48.73368" lon="2.09101">
        <ele>126.582</ele>
        <time>2013-08-08T05:31:05Z</time>
      </trkpt>
      <trkpt lat="48.73373" lon="2.09104">
        <ele>127.043</ele>
        <time>2013-08-08T05:31:09Z</time>
      </trkpt>
      <trkpt lat="48.73385" lon="2.09112">
        <ele>128.864</ele>
        <time>2013-08-08T05:31:18Z</time>
      </trkpt>
      <trkpt lat="48.73394" lon="2.09119">
        <ele>130.041</ele>
        <time>2013-08-08T05:31:26Z</time>
      </trkpt>
      <trkpt lat="48.73401" lon="2.09127">
        <ele>131.138</ele>
        <time>2013-08-08T05:31:35Z</time>
      </trkpt>
      <trkpt lat="48.73404" lon="2.09129">
        <ele>131.78</ele>
        <time>2013-08-08T05:31:39Z</time>
      </trkpt>
      <trkpt lat="48.73407" lon="2.09132">
        <ele>132.498</ele>
        <time>2013-08-08T05:31:44Z</time>
      </trkpt>
      <trkpt lat="48.73413" lon="2.09136">
        <ele>133.243</ele>
        <time>2013-08-08T05:31:50Z</time>
      </trkpt>
      <trkpt lat="48.7342" lon="2.09139">
        <ele>133.851</ele>
        <time>2013-08-08T05:31:55Z</time>
      </trkpt>
      <trkpt lat="48.73426" lon="2.09143">
        <ele>134.631</ele>
        <time>2013-08-08T05:32:01Z</time>
      </trkpt>
      <trkpt lat="48.73434" lon="2.09145">
        <ele>135.552</ele>
        <time>2013-08-08T05:32:08Z</time>
      </trkpt>
      <trkpt lat="48.73443" lon="2.09145">
        <ele>136.632</ele>
        <time>2013-08-08T05:32:16Z</time>
      </trkpt>
      <trkpt lat="48.73451" lon="2.09146">
        <ele>137.805</ele>
        <time>2013-08-08T05:32:24Z</time>
      </trkpt>
      <trkpt lat="48.73461" lon="2.09147">
        <ele>138.993</ele>
        <time>2013-08-08T05:32:31Z</time>
      </trkpt>
      <trkpt lat="48.73473" lon="2.09144">
        <ele>140.414</ele>
        <time>2013-08-08T05:32:41Z</time>
      </trkpt>
      <trkpt lat="48.73487" lon="2.09141">
        <ele>141.848</ele>
        <time>2013-08-08T05:32:52Z</time>
      </trkpt>
      <trkpt lat="48.73498" lon="2.09139">
        <ele>142.898</ele>
        <time>2013-08-08T05:33:00Z</time>
      </trkpt>
      <trkpt lat="48.73502" lon="2.09139">
        <ele>143.307</ele>
        <time>2013-08-08T05:33:04Z</time>
      </trkpt>
      <trkpt lat="48.73515" lon="2.09135">
        <ele>144.623</ele>
        <time>2013-08-08T05:33:14Z</time>
      </trkpt>
      <trkpt lat="48.73522" lon="2.09133">
        <ele>145.896</ele>
        <time>2013-08-08T05:33:21Z</time>
      </trkpt>
      <trkpt lat="48.73533" lon="2.09129">
        <ele>147.27</ele>
        <time>2013-08-08T05:33:30Z</time>
      </trkpt>
      <trkpt lat="48.73544" lon="2.09126">
        <ele>148.613</ele>
        <time>2013-08-08T05:33:38Z</time>
      </trkpt>
      <trkpt lat="48.7355" lon="2.09124">
        <ele>149.444</ele>
        <time>2013-08-08T05:33:44Z</time>
      </trkpt>
      <trkpt lat="48.73557" lon="2.0912">
        <ele>150.356</ele>
        <time>2013-08-08T05:33:50Z</time>
      </trkpt>
      <trkpt lat="48.73567" lon="2.09117">
        <ele>151.446</ele>
        <time>2013-08-08T05:33:57Z</time>
      </trkpt>
      <trkpt lat="48.7357" lon="2.09109">
        <ele>152.146</ele>
        <time>2013-08-08T05:34:02Z</time>
      </trkpt>
      <trkpt lat="48.73565" lon="2.09104">
        <ele>152.97</ele>
        <time>2013-08-08T05:34:07Z</time>
      </trkpt>
      <trkpt lat="48.73552" lon="2.09102">
        <ele>153.525</ele>
        <time>2013-08-08T05:34:15Z</time>
      </trkpt>
      <trkpt lat="48.73537" lon="2.091">
        <ele>153.942</ele>
        <time>2013-08-08T05:34:23Z</time>
      </trkpt>
      <trkpt lat="48.7352" lon="2.0909">
        <ele>154.52</ele>
        <time>2013-08-08T05:34:32Z</time>
      </trkpt>
      <trkpt lat="48.73512" lon="2.09079">
        <ele>155.274</ele>
        <time>2013-08-08T05:34:38Z</time>
      </trkpt>
      <trkpt lat="48.73502" lon="2.09064">
        <ele>156.296</ele>
        <time>2013-08-08T05:34:45Z</time>
      </trkpt>
      <trkpt lat="48.73507" lon="2.09046">
        <ele>156.577</ele>
        <time>2013-08-08T05:34:50Z</time>
      </trkpt>
      <trkpt lat="48.73517" lon="2.09028">
        <ele>156.095</ele>
        <time>2013-08-08T05:34:54Z</time>
      </trkpt>
      <trkpt lat="48.73533" lon="2.09011">
        <ele>155.246</ele>
        <time>2013-08-08T05:34:58Z</time>
      </trkpt>
      <trkpt lat="48.73561" lon="2.08977">
        <ele>154.656</ele>
        <time>2013-08-08T05:35:06Z</time>
      </trkpt>
      <trkpt lat="48.73585" lon="2.0896">
        <ele>155.166</ele>
        <time>2013-08-08T05:35:12Z</time>
      </trkpt>
      <trkpt lat="48.73605" lon="2.08952">
        <ele>155.909</ele>
        <time>2013-08-08T05:35:18Z</time>
      </trkpt>
      <trkpt lat="48.73622" lon="2.08952">
        <ele>156.632</ele>
        <time>2013-08-08T05:35:23Z</time>
      </trkpt>
      <trkpt lat="48.73635" lon="2.08948">
        <ele>157.352</ele>
        <time>2013-08-08T05:35:28Z</time>
      </trkpt>
      <trkpt lat="48.73646" lon="2.08927">
        <ele>157.533</ele>
        <time>2013-08-08T05:35:33Z</time>
      </trkpt>
      <trkpt lat="48.73651" lon="2.0891">
        <ele>157.253</ele>
        <time>2013-08-08T05:35:36Z</time>
      </trkpt>
      <trkpt lat="48.73664" lon="2.08885">
        <ele>156.621</ele>
        <time>2013-08-08T05:35:41Z</time>
      </trkpt>
      <trkpt lat="48.73678" lon="2.08852">
        <ele>156.198</ele>
        <time>2013-08-08T05:35:47Z</time>
      </trkpt>
      <trkpt lat="48.737" lon="2.08813">
        <ele>155.589</ele>
        <time>2013-08-08T05:35:55Z</time>
      </trkpt>
      <trkpt lat="48.73736" lon="2.0876">
        <ele>155.477</ele>
        <time>2013-08-08T05:36:06Z</time>
      </trkpt>
      <trkpt lat="48.73771" lon="2.08713">
        <ele>154.896</ele>
        <time>2013-08-08T05:36:16Z</time>
      </trkpt>
      <trkpt lat="48.73794" lon="2.08693">
        <ele>155.104</ele>
        <time>2013-08-08T05:36:22Z</time>
      </trkpt>
      <trkpt lat="48.73827" lon="2.08682">
        <ele>155.38</ele>
        <time>2013-08-08T05:36:30Z</time>
      </trkpt>
      <trkpt lat="48.73856" lon="2.08678">
        <ele>155.658</ele>
        <time>2013-08-08T05:36:37Z</time>
      </trkpt>
      <trkpt lat="48.73893" lon="2.08681">
        <ele>156.13</ele>
        <time>2013-08-08T05:36:46Z</time>
      </trkpt>
      <trkpt lat="48.73926" lon="2.08688">
        <ele>156.779</ele>
        <time>2013-08-08T05:36:54Z</time>
      </trkpt>
      <trkpt lat="48.73956" lon="2.08694">
        <ele>157.506</ele>
        <time>2013-08-08T05:37:01Z</time>
      </trkpt>
      <trkpt lat="48.73991" lon="2.08702">
        <ele>158.119</ele>
        <time>2013-08-08T05:37:09Z</time>
      </trkpt>
      <trkpt lat="48.74003" lon="2.08704">
        <ele>158.442</ele>
        <time>2013-08-08T05:37:12Z</time>
      </trkpt>
      <trkpt lat="48.74021" lon="2.08709">
        <ele>158.767</ele>
        <time>2013-08-08T05:37:17Z</time>
      </trkpt>
      <trkpt lat="48.74053" lon="2.08713">
        <ele>159.373</ele>
        <time>2013-08-08T05:37:25Z</time>
      </trkpt>
      <trkpt lat="48.74066" lon="2.08711">
        <ele>159.58</ele>
        <time>2013-08-08T05:37:28Z</time>
      </trkpt>
      <trkpt lat="48.74101" lon="2.08689">
        <ele>159.821</ele>
        <time>2013-08-08T05:37:37Z</time>
      </trkpt>
      <trkpt lat="48.74104" lon="2.08686">
        <ele>159.852</ele>
        <time>2013-08-08T05:37:38Z</time>
      </trkpt>
      <trkpt lat="48.74131" lon="2.08655">
        <ele>159.939</ele>
        <time>2013-08-08T05:37:46Z</time>
      </trkpt>
      <trkpt lat="48.74158" lon="2.08624">
        <ele>160.053</ele>
        <time>2013-08-08T05:37:54Z</time>
      </trkpt>
      <trkpt lat="48.74173" lon="2.08609">
        <ele>160.355</ele>
        <time>2013-08-08T05:37:58Z</time>
      </trkpt>
      <trkpt lat="48.742" lon="2.08577">
        <ele>160.355</ele>
        <time>2013-08-08T05:38:06Z</time>
      </trkpt>
      <trkpt lat="48.74227" lon="2.08545">
        <ele>160.435</ele>
        <time>2013-08-08T05:38:14Z</time>
      </trkpt>
      <trkpt lat="48.74257" lon="2.0851">
        <ele>160.657</ele>
        <time>2013-08-08T05:38:23Z</time>
      </trkpt>
      <trkpt lat="48.74291" lon="2.0847">
        <ele>160.731</ele>
        <time>2013-08-08T05:38:33Z</time>
      </trkpt>
      <trkpt lat="48.74329" lon="2.08426">
        <ele>160.948</ele>
        <time>2013-08-08T05:38:44Z</time>
      </trkpt>
      <trkpt lat="48.74367" lon="2.08381">
        <ele>160.821</ele>
        <time>2013-08-08T05:38:55Z</time>
      </trkpt>
      <trkpt lat="48.74396" lon="2.08349">
        <ele>160.584</ele>
        <time>2013-08-08T05:39:03Z</time>
      </trkpt>
      <trkpt lat="48.74428" lon="2.08315">
        <ele>160.284</ele>
        <time>2013-08-08T05:39:11Z</time>
      </trkpt>
      <trkpt lat="48.74466" lon="2.08266">
        <ele>159.939</ele>
        <time>2013-08-08T05:39:21Z</time>
      </trkpt>
      <trkpt lat="48.7447" lon="2.08261">
        <ele>159.83</ele>
        <time>2013-08-08T05:39:22Z</time>
      </trkpt>
      <trkpt lat="48.74499" lon="2.08223">
        <ele>159.404</ele>
        <time>2013-08-08T05:39:30Z</time>
      </trkpt>
      <trkpt lat="48.74532" lon="2.082">
        <ele>158.977</ele>
        <time>2013-08-08T05:39:38Z</time>
      </trkpt>
      <trkpt lat="48.74541" lon="2.08192">
        <ele>158.897</ele>
        <time>2013-08-08T05:39:40Z</time>
      </trkpt>
      <trkpt lat="48.74552" lon="2.08167">
        <ele>158.379</ele>
        <time>2013-08-08T05:39:44Z</time>
      </trkpt>
      <trkpt lat="48.74555" lon="2.08159">
        <ele>158.231</ele>
        <time>2013-08-08T05:39:45Z</time>
      </trkpt>
      <trkpt lat="48.74563" lon="2.08137">
        <ele>157.633</ele>
        <time>2013-08-08T05:39:48Z</time>
      </trkpt>
      <trkpt lat="48.74571" lon="2.08115">
        <ele>157.169</ele>
        <time>2013-08-08T05:39:51Z</time>
      </trkpt>
      <trkpt lat="48.74581" lon="2.08085">
        <ele>156.803</ele>
        <time>2013-08-08T05:39:55Z</time>
      </trkpt>
      <trkpt lat="48.746" lon="2.08028">
        <ele>156.506</ele>
        <time>2013-08-08T05:40:03Z</time>
      </trkpt>
      <trkpt lat="48.7462" lon="2.07969">
        <ele>156.606</ele>
        <time>2013-08-08T05:40:12Z</time>
      </trkpt>
      <trkpt lat="48.74643" lon="2.07907">
        <ele>157.416</ele>
        <time>2013-08-08T05:40:22Z</time>
      </trkpt>
      <trkpt lat="48.74659" lon="2.07863">
        <ele>158.464</ele>
        <time>2013-08-08T05:40:30Z</time>
      </trkpt>
      <trkpt lat="48.74681" lon="2.07801">
        <ele>159.834</ele>
        <time>2013-08-08T05:40:41Z</time>
      </trkpt>
      <trkpt lat="48.74703" lon="2.07741">
        <ele>160.989</ele>
        <time>2013-08-08T05:40:52Z</time>
      </trkpt>
      <trkpt lat="48.74725" lon="2.0768">
        <ele>162.141</ele>
        <time>2013-08-08T05:41:03Z</time>
      </trkpt>
      <trkpt lat="48.7475" lon="2.07612">
        <ele>162.989</ele>
        <time>2013-08-08T05:41:15Z</time>
      </trkpt>
      <trkpt lat="48.74773" lon="2.07547">
        <ele>163.624</ele>
        <time>2013-08-08T05:41:26Z</time>
      </trkpt>
      <trkpt lat="48.74795" lon="2.07488">
        <ele>164.226</ele>
        <time>2013-08-08T05:41:36Z</time>
      </trkpt>
      <trkpt lat="48.74827" lon="2.07399">
        <ele>164.6</ele>
        <time>2013-08-08T05:41:51Z</time>
      </trkpt>
      <trkpt lat="48.74852" lon="2.07325">
        <ele>165</ele>
        <time>2013-08-08T05:42:03Z</time>
      </trkpt>
      <trkpt lat="48.74873" lon="2.07261">
        <ele>165.321</ele>
        <time>2013-08-08T05:42:13Z</time>
      </trkpt>
      <trkpt lat="48.74889" lon="2.07217">
        <ele>165.552</ele>
        <time>2013-08-08T05:42:20Z</time>
      </trkpt>
      <trkpt lat="48.74909" lon="2.0716">
        <ele>165.867</ele>
        <time>2013-08-08T05:42:29Z</time>
      </trkpt>
      <trkpt lat="48.74931" lon="2.07103">
        <ele>165.986</ele>
        <time>2013-08-08T05:42:38Z</time>
      </trkpt>
      <trkpt lat="48.74958" lon="2.07035">
        <ele>166.298</ele>
        <time>2013-08-08T05:42:49Z</time>
      </trkpt>
      <trkpt lat="48.74995" lon="2.06947">
        <ele>166.709</ele>
        <time>2013-08-08T05:43:03Z</time>
      </trkpt>
      <trkpt lat="48.75028" lon="2.06857">
        <ele>166.94</ele>
        <time>2013-08-08T05:43:17Z</time>
      </trkpt>
      <trkpt lat="48.75043" lon="2.06799">
        <ele>167.114</ele>
        <time>2013-08-08T05:43:26Z</time>
      </trkpt>
      <trkpt lat="48.75049" lon="2.06773">
        <ele>167.427</ele>
        <time>2013-08-08T05:43:31Z</time>
      </trkpt>
      <trkpt lat="48.75058" lon="2.06775">
        <ele>167.54</ele>
        <time>2013-08-08T05:43:34Z</time>
      </trkpt>
      <trkpt lat="48.75069" lon="2.06785">
        <ele>167.587</ele>
        <time>2013-08-08T05:43:37Z</time>
      </trkpt>
      <trkpt lat="48.75096" lon="2.06783">
        <ele>167.453</ele>
        <time>2013-08-08T05:43:43Z</time>
      </trkpt>
      <trkpt lat="48.75108" lon="2.06769">
        <ele>167.431</ele>
        <time>2013-08-08T05:43:46Z</time>
      </trkpt>
      <trkpt lat="48.75127" lon="2.06765">
        <ele>167.573</ele>
        <time>2013-08-08T05:43:50Z</time>
      </trkpt>
      <trkpt lat="48.75137" lon="2.0677">
        <ele>167.605</ele>
        <time>2013-08-08T05:43:52Z</time>
      </trkpt>
      <trkpt lat="48.75183" lon="2.06804">
        <ele>167.417</ele>
        <time>2013-08-08T05:44:02Z</time>
      </trkpt>
      <trkpt lat="48.75192" lon="2.06813">
        <ele>167.343</ele>
        <time>2013-08-08T05:44:04Z</time>
      </trkpt>
      <trkpt lat="48.75229" lon="2.06848">
        <ele>167.389</ele>
        <time>2013-08-08T05:44:12Z</time>
      </trkpt>
      <trkpt lat="48.75273" lon="2.06883">
        <ele>167.185</ele>
        <time>2013-08-08T05:44:21Z</time>
      </trkpt>
      <trkpt lat="48.75337" lon="2.06932">
        <ele>166.894</ele>
        <time>2013-08-08T05:44:33Z</time>
      </trkpt>
      <trkpt lat="48.75396" lon="2.06978">
        <ele>166.319</ele>
        <time>2013-08-08T05:44:44Z</time>
      </trkpt>
      <trkpt lat="48.75432" lon="2.07006">
        <ele>166.354</ele>
        <time>2013-08-08T05:44:51Z</time>
      </trkpt>
      <trkpt lat="48.75477" lon="2.07041">
        <ele>166.418</ele>
        <time>2013-08-08T05:45:00Z</time>
      </trkpt>
      <trkpt lat="48.75522" lon="2.07074">
        <ele>166.748</ele>
        <time>2013-08-08T05:45:09Z</time>
      </trkpt>
      <trkpt lat="48.75555" lon="2.071">
        <ele>167.15</ele>
        <time>2013-08-08T05:45:16Z</time>
      </trkpt>
      <trkpt lat="48.7557" lon="2.07134">
        <ele>166.958</ele>
        <time>2013-08-08T05:45:21Z</time>
      </trkpt>
      <trkpt lat="48.75574" lon="2.07149">
        <ele>166.942</ele>
        <time>2013-08-08T05:45:23Z</time>
      </trkpt>
      <trkpt lat="48.75581" lon="2.07162">
        <ele>166.933</ele>
        <time>2013-08-08T05:45:25Z</time>
      </trkpt>
      <trkpt lat="48.75582" lon="2.07193">
        <ele>167.088</ele>
        <time>2013-08-08T05:45:29Z</time>
      </trkpt>
      <trkpt lat="48.75564" lon="2.07268">
        <ele>166.729</ele>
        <time>2013-08-08T05:45:38Z</time>
      </trkpt>
      <trkpt lat="48.75542" lon="2.07367">
        <ele>166.099</ele>
        <time>2013-08-08T05:45:49Z</time>
      </trkpt>
      <trkpt lat="48.7552" lon="2.07459">
        <ele>165.809</ele>
        <time>2013-08-08T05:45:59Z</time>
      </trkpt>
      <trkpt lat="48.75516" lon="2.07476">
        <ele>165.69</ele>
        <time>2013-08-08T05:46:01Z</time>
      </trkpt>
      <trkpt lat="48.755" lon="2.07495">
        <ele>165.515</ele>
        <time>2013-08-08T05:46:05Z</time>
      </trkpt>
      <trkpt lat="48.75489" lon="2.07512">
        <ele>165.613</ele>
        <time>2013-08-08T05:46:08Z</time>
      </trkpt>
      <trkpt lat="48.75488" lon="2.07537">
        <ele>165.657</ele>
        <time>2013-08-08T05:46:11Z</time>
      </trkpt>
      <trkpt lat="48.755" lon="2.07555">
        <ele>165.702</ele>
        <time>2013-08-08T05:46:14Z</time>
      </trkpt>
      <trkpt lat="48.75522" lon="2.07563">
        <ele>165.801</ele>
        <time>2013-08-08T05:46:18Z</time>
      </trkpt>
      <trkpt lat="48.75529" lon="2.07573">
        <ele>165.92</ele>
        <time>2013-08-08T05:46:20Z</time>
      </trkpt>
      <trkpt lat="48.75546" lon="2.07612">
        <ele>166.05</ele>
        <time>2013-08-08T05:46:26Z</time>
      </trkpt>
      <trkpt lat="48.75573" lon="2.0767">
        <ele>165.737</ele>
        <time>2013-08-08T05:46:34Z</time>
      </trkpt>
      <trkpt lat="48.756" lon="2.07725">
        <ele>165.611</ele>
        <time>2013-08-08T05:46:41Z</time>
      </trkpt>
      <trkpt lat="48.75631" lon="2.07789">
        <ele>165.225</ele>
        <time>2013-08-08T05:46:49Z</time>
      </trkpt>
      <trkpt lat="48.75655" lon="2.07842">
        <ele>164.991</ele>
        <time>2013-08-08T05:46:56Z</time>
      </trkpt>
      <trkpt lat="48.7568" lon="2.079">
        <ele>164.607</ele>
        <time>2013-08-08T05:47:03Z</time>
      </trkpt>
      <trkpt lat="48.75682" lon="2.07908">
        <ele>164.59</ele>
        <time>2013-08-08T05:47:04Z</time>
      </trkpt>
      <trkpt lat="48.75696" lon="2.07939">
        <ele>164.76</ele>
        <time>2013-08-08T05:47:08Z</time>
      </trkpt>
      <trkpt lat="48.75718" lon="2.08001">
        <ele>163.998</ele>
        <time>2013-08-08T05:47:15Z</time>
      </trkpt>
      <trkpt lat="48.75716" lon="2.08032">
        <ele>163.608</ele>
        <time>2013-08-08T05:47:19Z</time>
      </trkpt>
      <trkpt lat="48.75714" lon="2.08049">
        <ele>163.342</ele>
        <time>2013-08-08T05:47:21Z</time>
      </trkpt>
      <trkpt lat="48.75703" lon="2.08095">
        <ele>162.329</ele>
        <time>2013-08-08T05:47:26Z</time>
      </trkpt>
      <trkpt lat="48.7567" lon="2.08133">
        <ele>161.382</ele>
        <time>2013-08-08T05:47:32Z</time>
      </trkpt>
      <trkpt lat="48.75639" lon="2.0815">
        <ele>161.222</ele>
        <time>2013-08-08T05:47:37Z</time>
      </trkpt>
      <trkpt lat="48.75599" lon="2.08176">
        <ele>161.418</ele>
        <time>2013-08-08T05:47:44Z</time>
      </trkpt>
      <trkpt lat="48.7557" lon="2.08211">
        <ele>161.349</ele>
        <time>2013-08-08T05:47:50Z</time>
      </trkpt>
      <trkpt lat="48.75549" lon="2.08257">
        <ele>161.335</ele>
        <time>2013-08-08T05:47:56Z</time>
      </trkpt>
      <trkpt lat="48.75537" lon="2.08311">
        <ele>161.378</ele>
        <time>2013-08-08T05:48:02Z</time>
      </trkpt>
      <trkpt lat="48.75532" lon="2.08376">
        <ele>161.482</ele>
        <time>2013-08-08T05:48:09Z</time>
      </trkpt>
      <trkpt lat="48.75531" lon="2.08451">
        <ele>162.802</ele>
        <time>2013-08-08T05:48:18Z</time>
      </trkpt>
      <trkpt lat="48.75535" lon="2.0851">
        <ele>164.516</ele>
        <time>2013-08-08T05:48:26Z</time>
      </trkpt>
      <trkpt lat="48.75537" lon="2.08531">
        <ele>165.174</ele>
        <time>2013-08-08T05:48:29Z</time>
      </trkpt>
      <trkpt lat="48.75548" lon="2.08591">
        <ele>166.374</ele>
        <time>2013-08-08T05:48:38Z</time>
      </trkpt>
      <trkpt lat="48.75562" lon="2.08636">
        <ele>166.593</ele>
        <time>2013-08-08T05:48:45Z</time>
      </trkpt>
      <trkpt lat="48.75588" lon="2.08688">
        <ele>165.963</ele>
        <time>2013-08-08T05:48:53Z</time>
      </trkpt>
      <trkpt lat="48.75619" lon="2.08727">
        <ele>164.398</ele>
        <time>2013-08-08T05:49:00Z</time>
      </trkpt>
      <trkpt lat="48.7566" lon="2.08758">
        <ele>163.264</ele>
        <time>2013-08-08T05:49:07Z</time>
      </trkpt>
      <trkpt lat="48.75706" lon="2.08779">
        <ele>161.611</ele>
        <time>2013-08-08T05:49:14Z</time>
      </trkpt>
      <trkpt lat="48.75739" lon="2.08793">
        <ele>160.199</ele>
        <time>2013-08-08T05:49:19Z</time>
      </trkpt>
      <trkpt lat="48.75815" lon="2.08828">
        <ele>159.082</ele>
        <time>2013-08-08T05:49:31Z</time>
      </trkpt>
      <trkpt lat="48.75875" lon="2.08855">
        <ele>158.999</ele>
        <time>2013-08-08T05:49:41Z</time>
      </trkpt>
      <trkpt lat="48.75909" lon="2.0887">
        <ele>159.224</ele>
        <time>2013-08-08T05:49:47Z</time>
      </trkpt>
      <trkpt lat="48.75955" lon="2.08891">
        <ele>159.452</ele>
        <time>2013-08-08T05:49:55Z</time>
      </trkpt>
      <trkpt lat="48.76008" lon="2.08915">
        <ele>159.823</ele>
        <time>2013-08-08T05:50:05Z</time>
      </trkpt>
      <trkpt lat="48.76053" lon="2.08936">
        <ele>159.923</ele>
        <time>2013-08-08T05:50:14Z</time>
      </trkpt>
      <trkpt lat="48.76094" lon="2.08953">
        <ele>160.482</ele>
        <time>2013-08-08T05:50:22Z</time>
      </trkpt>
      <trkpt lat="48.76129" lon="2.08951">
        <ele>160.765</ele>
        <time>2013-08-08T05:50:29Z</time>
      </trkpt>
      <trkpt lat="48.76161" lon="2.0893">
        <ele>161.059</ele>
        <time>2013-08-08T05:50:36Z</time>
      </trkpt>
      <trkpt lat="48.76182" lon="2.08901">
        <ele>161.066</ele>
        <time>2013-08-08T05:50:42Z</time>
      </trkpt>
      <trkpt lat="48.76185" lon="2.08869">
        <ele>161.106</ele>
        <time>2013-08-08T05:50:47Z</time>
      </trkpt>
      <trkpt lat="48.7619" lon="2.0883">
        <ele>161.355</ele>
        <time>2013-08-08T05:50:53Z</time>
      </trkpt>
      <trkpt lat="48.76196" lon="2.08801">
        <ele>161.623</ele>
        <time>2013-08-08T05:50:58Z</time>
      </trkpt>
      <trkpt lat="48.76188" lon="2.08785">
        <ele>161.531</ele>
        <time>2013-08-08T05:51:01Z</time>
      </trkpt>
      <trkpt lat="48.76182" lon="2.08774">
        <ele>161.397</ele>
        <time>2013-08-08T05:51:03Z</time>
      </trkpt>
      <trkpt lat="48.76158" lon="2.0873">
        <ele>160.79</ele>
        <time>2013-08-08T05:51:11Z</time>
      </trkpt>
      <trkpt lat="48.76147" lon="2.08708">
        <ele>160.572</ele>
        <time>2013-08-08T05:51:15Z</time>
      </trkpt>
      <trkpt lat="48.76145" lon="2.08704">
        <ele>160.642</ele>
        <time>2013-08-08T05:51:16Z</time>
      </trkpt>
      <trkpt lat="48.7614" lon="2.08682">
        <ele>160.371</ele>
        <time>2013-08-08T05:51:20Z</time>
      </trkpt>
      <trkpt lat="48.76144" lon="2.08678">
        <ele>160.287</ele>
        <time>2013-08-08T05:51:21Z</time>
      </trkpt>
      <trkpt lat="48.76183" lon="2.08636">
        <ele>159.826</ele>
        <time>2013-08-08T05:51:31Z</time>
      </trkpt>
      <trkpt lat="48.76227" lon="2.08584">
        <ele>159.861</ele>
        <time>2013-08-08T05:51:42Z</time>
      </trkpt>
      <trkpt lat="48.76255" lon="2.08549">
        <ele>159.726</ele>
        <time>2013-08-08T05:51:50Z</time>
      </trkpt>
      <trkpt lat="48.76258" lon="2.08535">
        <ele>159.621</ele>
        <time>2013-08-08T05:51:54Z</time>
      </trkpt>
      <trkpt lat="48.76248" lon="2.08515">
        <ele>159.526</ele>
        <time>2013-08-08T05:51:59Z</time>
      </trkpt>
      <trkpt lat="48.7623" lon="2.08482">
        <ele>159.802</ele>
        <time>2013-08-08T05:52:06Z</time>
      </trkpt>
      <trkpt lat="48.76215" lon="2.08456">
        <ele>159.731</ele>
        <time>2013-08-08T05:52:12Z</time>
      </trkpt>
      <trkpt lat="48.76204" lon="2.08437">
        <ele>159.644</ele>
        <time>2013-08-08T05:52:17Z</time>
      </trkpt>
      <trkpt lat="48.76208" lon="2.08429">
        <ele>159.647</ele>
        <time>2013-08-08T05:52:21Z</time>
      </trkpt>
      <trkpt lat="48.76213" lon="2.0842">
        <ele>159.624</ele>
        <time>2013-08-08T05:52:24Z</time>
      </trkpt>
      <trkpt lat="48.76239" lon="2.0839">
        <ele>159.582</ele>
        <time>2013-08-08T05:52:33Z</time>
      </trkpt>
      <trkpt lat="48.76256" lon="2.08365">
        <ele>159.696</ele>
        <time>2013-08-08T05:52:40Z</time>
      </trkpt>
      <trkpt lat="48.76261" lon="2.08356">
        <ele>159.608</ele>
        <time>2013-08-08T05:52:44Z</time>
      </trkpt>
      <trkpt lat="48.76261" lon="2.08354">
        <ele>159.714</ele>
        <time>2013-08-08T05:52:51Z</time>
      </trkpt>
    </trkseg>
  </trk>
</gpx>